sensor_id;sensor_type;location;lat;lon;timestamp;temperature;humidity
45807;DHT22;31507;51.494;7.518;2023-07-31T00:02:18;15.20;99.90
45807;DHT22;31507;51.494;7.518;2023-07-31T00:04:43;15.20;99.90
45807;DHT22;31507;51.494;7.518;2023-07-31T00:07:09;15.20;99.90
45807;DHT22;31507;51.494;7.518;2023-07-31T00:09:34;15.30;99.90
45807;DHT22;31507;51.494;7.518;2023-07-31T00:12:00;15.30;99.90
45807;DHT22;31507;51.494;7.518;2023-07-31T00:14:25;15.30;99.90
45807;DHT22;31507;51.494;7.518;2023-07-31T00:16:51;15.30;99.90
45807;DHT22;31507;51.494;7.518;2023-07-31T00:19:17;15.30;99.90
45807;DHT22;31507;51.494;7.518;2023-07-31T00:21:44;15.30;99.90
45807;DHT22;31507;51.494;7.518;2023-07-31T00:24:10;15.20;99.90
45807;DHT22;31507;51.494;7.518;2023-07-31T00:26:35;15.20;99.90
45807;DHT22;31507;51.494;7.518;2023-07-31T00:29:02;15.20;99.90
45807;DHT22;31507;51.494;7.518;2023-07-31T00:31:28;15.20;99.90
45807;DHT22;31507;51.494;7.518;2023-07-31T00:33:53;15.20;99.90
45807;DHT22;31507;51.494;7.518;2023-07-31T00:36:19;15.30;99.90
45807;DHT22;31507;51.494;7.518;2023-07-31T00:38:44;15.20;99.90
45807;DHT22;31507;51.494;7.518;2023-07-31T00:41:10;15.20;99.90
45807;DHT22;31507;51.494;7.518;2023-07-31T00:43:36;15.20;99.90
45807;DHT22;31507;51.494;7.518;2023-07-31T00:46:01;15.20;99.90
45807;DHT22;31507;51.494;7.518;2023-07-31T00:48:27;15.20;99.90
45807;DHT22;31507;51.494;7.518;2023-07-31T00:50:53;15.30;99.90
45807;DHT22;31507;51.494;7.518;2023-07-31T00:53:19;15.30;99.90
45807;DHT22;31507;51.494;7.518;2023-07-31T00:55:45;15.30;99.90
45807;DHT22;31507;51.494;7.518;2023-07-31T00:58:11;15.30;99.90
45807;DHT22;31507;51.494;7.518;2023-07-31T01:00:36;15.30;99.90
45807;DHT22;31507;51.494;7.518;2023-07-31T01:03:02;15.30;99.90
45807;DHT22;31507;51.494;7.518;2023-07-31T01:11:15;15.20;99.90
45807;DHT22;31507;51.494;7.518;2023-07-31T01:13:42;15.30;99.90
45807;DHT22;31507;51.494;7.518;2023-07-31T01:16:09;15.20;99.90
45807;DHT22;31507;51.494;7.518;2023-07-31T01:18:35;15.20;99.90
45807;DHT22;31507;51.494;7.518;2023-07-31T01:26:40;15.30;99.90
45807;DHT22;31507;51.494;7.518;2023-07-31T01:31:53;15.30;99.90
45807;DHT22;31507;51.494;7.518;2023-07-31T01:34:21;15.40;99.90
45807;DHT22;31507;51.494;7.518;2023-07-31T01:36:47;15.40;99.90
45807;DHT22;31507;51.494;7.518;2023-07-31T01:39:14;15.40;99.90
45807;DHT22;31507;51.494;7.518;2023-07-31T01:41:41;15.40;99.90
45807;DHT22;31507;51.494;7.518;2023-07-31T01:44:06;15.40;99.90
45807;DHT22;31507;51.494;7.518;2023-07-31T01:46:32;15.40;99.90
45807;DHT22;31507;51.494;7.518;2023-07-31T01:48:58;15.40;99.90
45807;DHT22;31507;51.494;7.518;2023-07-31T01:51:23;15.40;99.90
45807;DHT22;31507;51.494;7.518;2023-07-31T01:53:49;15.40;99.90
45807;DHT22;31507;51.494;7.518;2023-07-31T01:56:14;15.50;99.90
45807;DHT22;31507;51.494;7.518;2023-07-31T01:58:40;15.40;99.90
45807;DHT22;31507;51.494;7.518;2023-07-31T02:01:06;15.40;99.90
45807;DHT22;31507;51.494;7.518;2023-07-31T02:03:31;15.40;99.90
45807;DHT22;31507;51.494;7.518;2023-07-31T02:05:58;15.40;99.90
45807;DHT22;31507;51.494;7.518;2023-07-31T02:08:25;15.50;99.90
45807;DHT22;31507;51.494;7.518;2023-07-31T02:10:51;15.50;99.90
45807;DHT22;31507;51.494;7.518;2023-07-31T02:13:17;15.50;99.90
45807;DHT22;31507;51.494;7.518;2023-07-31T02:15:43;15.50;99.90
45807;DHT22;31507;51.494;7.518;2023-07-31T02:18:10;15.50;99.90
45807;DHT22;31507;51.494;7.518;2023-07-31T02:20:36;15.50;99.90
45807;DHT22;31507;51.494;7.518;2023-07-31T02:23:02;15.50;99.90
45807;DHT22;31507;51.494;7.518;2023-07-31T02:25:28;15.50;99.90
45807;DHT22;31507;51.494;7.518;2023-07-31T02:27:53;15.40;99.90
45807;DHT22;31507;51.494;7.518;2023-07-31T02:30:20;15.50;99.90
45807;DHT22;31507;51.494;7.518;2023-07-31T02:32:46;15.50;99.90
45807;DHT22;31507;51.494;7.518;2023-07-31T02:35:11;15.50;99.90
45807;DHT22;31507;51.494;7.518;2023-07-31T02:37:41;15.50;99.90
45807;DHT22;31507;51.494;7.518;2023-07-31T02:40:07;15.50;99.90
45807;DHT22;31507;51.494;7.518;2023-07-31T02:42:32;15.50;99.90
45807;DHT22;31507;51.494;7.518;2023-07-31T02:44:58;15.50;99.90
45807;DHT22;31507;51.494;7.518;2023-07-31T02:47:24;15.60;99.90
45807;DHT22;31507;51.494;7.518;2023-07-31T02:49:49;15.50;99.90
45807;DHT22;31507;51.494;7.518;2023-07-31T02:52:15;15.60;99.90
45807;DHT22;31507;51.494;7.518;2023-07-31T02:54:40;15.60;99.90
45807;DHT22;31507;51.494;7.518;2023-07-31T02:57:06;15.60;99.90
45807;DHT22;31507;51.494;7.518;2023-07-31T02:59:32;15.60;99.90
45807;DHT22;31507;51.494;7.518;2023-07-31T03:01:57;15.60;99.90
45807;DHT22;31507;51.494;7.518;2023-07-31T03:04:23;15.60;99.90
45807;DHT22;31507;51.494;7.518;2023-07-31T03:06:48;15.60;99.90
45807;DHT22;31507;51.494;7.518;2023-07-31T03:09:14;15.60;99.90
45807;DHT22;31507;51.494;7.518;2023-07-31T03:11:40;15.60;99.90
45807;DHT22;31507;51.494;7.518;2023-07-31T03:14:05;15.60;99.90
45807;DHT22;31507;51.494;7.518;2023-07-31T03:16:31;15.60;99.90
45807;DHT22;31507;51.494;7.518;2023-07-31T03:18:56;15.60;99.90
45807;DHT22;31507;51.494;7.518;2023-07-31T03:21:22;15.60;99.90
45807;DHT22;31507;51.494;7.518;2023-07-31T03:23:48;15.60;99.90
45807;DHT22;31507;51.494;7.518;2023-07-31T03:26:14;15.60;99.90
45807;DHT22;31507;51.494;7.518;2023-07-31T03:28:39;15.60;99.90
45807;DHT22;31507;51.494;7.518;2023-07-31T03:31:05;15.60;99.90
45807;DHT22;31507;51.494;7.518;2023-07-31T03:33:31;15.70;99.90
45807;DHT22;31507;51.494;7.518;2023-07-31T03:35:57;15.60;99.90
45807;DHT22;31507;51.494;7.518;2023-07-31T03:38:22;15.60;99.90
45807;DHT22;31507;51.494;7.518;2023-07-31T03:40:48;15.70;99.90
45807;DHT22;31507;51.494;7.518;2023-07-31T03:43:14;15.70;99.90
45807;DHT22;31507;51.494;7.518;2023-07-31T03:45:40;15.70;99.90
45807;DHT22;31507;51.494;7.518;2023-07-31T03:48:06;15.70;99.90
45807;DHT22;31507;51.494;7.518;2023-07-31T03:50:33;15.70;99.90
45807;DHT22;31507;51.494;7.518;2023-07-31T03:52:58;15.70;99.90
45807;DHT22;31507;51.494;7.518;2023-07-31T03:55:24;15.80;99.90
45807;DHT22;31507;51.494;7.518;2023-07-31T03:57:50;15.70;99.90
45807;DHT22;31507;51.494;7.518;2023-07-31T04:00:15;15.80;99.90
45807;DHT22;31507;51.494;7.518;2023-07-31T04:02:41;15.80;99.90
45807;DHT22;31507;51.494;7.518;2023-07-31T04:05:07;15.90;99.90
45807;DHT22;31507;51.494;7.518;2023-07-31T04:07:33;15.90;99.90
45807;DHT22;31507;51.494;7.518;2023-07-31T04:09:59;16.00;99.90
45807;DHT22;31507;51.494;7.518;2023-07-31T04:12:25;16.00;99.90
45807;DHT22;31507;51.494;7.518;2023-07-31T04:14:50;16.00;99.90
45807;DHT22;31507;51.494;7.518;2023-07-31T04:17:17;16.00;99.90
45807;DHT22;31507;51.494;7.518;2023-07-31T04:19:43;16.10;99.90
45807;DHT22;31507;51.494;7.518;2023-07-31T04:22:09;16.10;99.90
45807;DHT22;31507;51.494;7.518;2023-07-31T04:24:34;16.10;99.90
45807;DHT22;31507;51.494;7.518;2023-07-31T04:27:00;16.10;99.90
45807;DHT22;31507;51.494;7.518;2023-07-31T04:29:25;16.20;99.90
45807;DHT22;31507;51.494;7.518;2023-07-31T04:31:51;16.20;99.90
45807;DHT22;31507;51.494;7.518;2023-07-31T04:34:17;16.20;99.90
45807;DHT22;31507;51.494;7.518;2023-07-31T04:36:42;16.30;99.90
45807;DHT22;31507;51.494;7.518;2023-07-31T04:39:08;16.30;99.90
45807;DHT22;31507;51.494;7.518;2023-07-31T04:41:33;16.30;99.90
45807;DHT22;31507;51.494;7.518;2023-07-31T04:43:59;16.30;99.90
45807;DHT22;31507;51.494;7.518;2023-07-31T04:46:25;16.30;99.90
45807;DHT22;31507;51.494;7.518;2023-07-31T04:48:50;16.30;99.90
45807;DHT22;31507;51.494;7.518;2023-07-31T04:51:16;16.40;99.90
45807;DHT22;31507;51.494;7.518;2023-07-31T04:53:41;16.40;99.90
45807;DHT22;31507;51.494;7.518;2023-07-31T04:56:07;16.40;99.90
45807;DHT22;31507;51.494;7.518;2023-07-31T04:58:33;16.40;99.90
45807;DHT22;31507;51.494;7.518;2023-07-31T05:00:58;16.40;99.90
45807;DHT22;31507;51.494;7.518;2023-07-31T05:03:24;16.50;99.90
45807;DHT22;31507;51.494;7.518;2023-07-31T05:05:51;16.50;99.90
45807;DHT22;31507;51.494;7.518;2023-07-31T05:08:17;16.50;99.90
45807;DHT22;31507;51.494;7.518;2023-07-31T05:10:45;16.40;99.90
45807;DHT22;31507;51.494;7.518;2023-07-31T05:13:11;16.40;99.90
45807;DHT22;31507;51.494;7.518;2023-07-31T05:15:36;16.40;99.90
45807;DHT22;31507;51.494;7.518;2023-07-31T05:18:02;16.40;99.90
45807;DHT22;31507;51.494;7.518;2023-07-31T05:20:27;16.40;99.90
45807;DHT22;31507;51.494;7.518;2023-07-31T05:22:53;16.30;99.90
45807;DHT22;31507;51.494;7.518;2023-07-31T05:25:19;16.30;99.90
45807;DHT22;31507;51.494;7.518;2023-07-31T05:27:44;16.30;99.90
45807;DHT22;31507;51.494;7.518;2023-07-31T05:30:10;16.30;99.90
45807;DHT22;31507;51.494;7.518;2023-07-31T05:32:36;16.30;99.90
45807;DHT22;31507;51.494;7.518;2023-07-31T05:35:02;16.40;99.90
45807;DHT22;31507;51.494;7.518;2023-07-31T05:37:28;16.40;99.90
45807;DHT22;31507;51.494;7.518;2023-07-31T05:39:53;16.40;99.90
45807;DHT22;31507;51.494;7.518;2023-07-31T05:42:20;16.50;99.90
45807;DHT22;31507;51.494;7.518;2023-07-31T05:44:46;16.50;99.90
45807;DHT22;31507;51.494;7.518;2023-07-31T05:47:12;16.50;99.90
45807;DHT22;31507;51.494;7.518;2023-07-31T05:49:38;16.60;99.90
45807;DHT22;31507;51.494;7.518;2023-07-31T05:52:04;16.60;99.90
45807;DHT22;31507;51.494;7.518;2023-07-31T05:54:30;16.70;99.90
45807;DHT22;31507;51.494;7.518;2023-07-31T05:56:55;16.70;99.90
45807;DHT22;31507;51.494;7.518;2023-07-31T05:59:21;16.70;99.90
45807;DHT22;31507;51.494;7.518;2023-07-31T06:01:46;16.70;99.90
45807;DHT22;31507;51.494;7.518;2023-07-31T06:04:12;16.80;99.90
45807;DHT22;31507;51.494;7.518;2023-07-31T06:06:38;16.70;99.90
45807;DHT22;31507;51.494;7.518;2023-07-31T06:09:03;16.50;99.90
45807;DHT22;31507;51.494;7.518;2023-07-31T06:11:30;16.40;99.90
45807;DHT22;31507;51.494;7.518;2023-07-31T06:13:56;16.30;99.90
45807;DHT22;31507;51.494;7.518;2023-07-31T06:16:23;16.20;99.90
45807;DHT22;31507;51.494;7.518;2023-07-31T06:18:48;16.20;99.90
45807;DHT22;31507;51.494;7.518;2023-07-31T06:21:14;16.20;99.90
45807;DHT22;31507;51.494;7.518;2023-07-31T06:23:39;16.20;99.90
45807;DHT22;31507;51.494;7.518;2023-07-31T06:26:05;16.20;99.90
45807;DHT22;31507;51.494;7.518;2023-07-31T06:28:31;16.20;99.90
45807;DHT22;31507;51.494;7.518;2023-07-31T06:31:00;16.20;99.90
45807;DHT22;31507;51.494;7.518;2023-07-31T06:33:27;16.30;99.90
45807;DHT22;31507;51.494;7.518;2023-07-31T06:35:53;16.30;99.90
45807;DHT22;31507;51.494;7.518;2023-07-31T06:38:23;16.40;99.90
45807;DHT22;31507;51.494;7.518;2023-07-31T06:40:49;16.40;99.90
45807;DHT22;31507;51.494;7.518;2023-07-31T06:43:15;16.50;99.90
45807;DHT22;31507;51.494;7.518;2023-07-31T06:45:40;16.60;99.90
45807;DHT22;31507;51.494;7.518;2023-07-31T06:48:06;16.60;99.90
45807;DHT22;31507;51.494;7.518;2023-07-31T06:50:32;16.70;99.90
45807;DHT22;31507;51.494;7.518;2023-07-31T06:52:58;16.70;99.90
45807;DHT22;31507;51.494;7.518;2023-07-31T06:55:24;16.70;99.90
45807;DHT22;31507;51.494;7.518;2023-07-31T06:57:51;16.60;99.90
45807;DHT22;31507;51.494;7.518;2023-07-31T07:00:17;16.60;99.90
45807;DHT22;31507;51.494;7.518;2023-07-31T07:02:43;16.70;99.90
45807;DHT22;31507;51.494;7.518;2023-07-31T07:05:10;16.70;99.90
45807;DHT22;31507;51.494;7.518;2023-07-31T07:07:36;16.80;99.90
45807;DHT22;31507;51.494;7.518;2023-07-31T07:10:02;16.70;99.90
45807;DHT22;31507;51.494;7.518;2023-07-31T07:12:30;16.70;99.90
45807;DHT22;31507;51.494;7.518;2023-07-31T07:14:55;16.70;99.90
45807;DHT22;31507;51.494;7.518;2023-07-31T07:17:23;16.60;99.90
45807;DHT22;31507;51.494;7.518;2023-07-31T07:19:48;16.60;99.90
45807;DHT22;31507;51.494;7.518;2023-07-31T07:22:15;16.60;99.90
45807;DHT22;31507;51.494;7.518;2023-07-31T07:24:41;16.60;99.90
45807;DHT22;31507;51.494;7.518;2023-07-31T07:27:07;16.60;99.90
45807;DHT22;31507;51.494;7.518;2023-07-31T07:29:34;16.60;99.90
45807;DHT22;31507;51.494;7.518;2023-07-31T07:32:00;16.60;99.90
45807;DHT22;31507;51.494;7.518;2023-07-31T07:34:27;16.60;99.90
45807;DHT22;31507;51.494;7.518;2023-07-31T07:36:53;16.50;99.90
45807;DHT22;31507;51.494;7.518;2023-07-31T07:39:19;16.40;99.90
45807;DHT22;31507;51.494;7.518;2023-07-31T07:41:46;16.40;99.90
45807;DHT22;31507;51.494;7.518;2023-07-31T07:44:12;16.40;99.90
45807;DHT22;31507;51.494;7.518;2023-07-31T07:46:38;16.40;99.90
45807;DHT22;31507;51.494;7.518;2023-07-31T07:49:03;16.40;99.90
45807;DHT22;31507;51.494;7.518;2023-07-31T07:51:29;16.40;99.90
45807;DHT22;31507;51.494;7.518;2023-07-31T07:53:59;16.40;99.90
45807;DHT22;31507;51.494;7.518;2023-07-31T07:56:26;16.40;99.90
45807;DHT22;31507;51.494;7.518;2023-07-31T07:58:53;16.40;99.90
45807;DHT22;31507;51.494;7.518;2023-07-31T08:01:18;16.50;99.90
45807;DHT22;31507;51.494;7.518;2023-07-31T08:03:44;16.50;99.90
45807;DHT22;31507;51.494;7.518;2023-07-31T08:06:10;16.40;99.90
45807;DHT22;31507;51.494;7.518;2023-07-31T08:08:36;16.40;99.90
45807;DHT22;31507;51.494;7.518;2023-07-31T08:11:04;16.50;99.90
45807;DHT22;31507;51.494;7.518;2023-07-31T08:13:30;16.50;99.90
45807;DHT22;31507;51.494;7.518;2023-07-31T08:15:55;16.50;99.90
45807;DHT22;31507;51.494;7.518;2023-07-31T08:18:21;16.50;99.90
45807;DHT22;31507;51.494;7.518;2023-07-31T08:20:47;16.50;99.90
45807;DHT22;31507;51.494;7.518;2023-07-31T08:23:13;16.60;99.90
45807;DHT22;31507;51.494;7.518;2023-07-31T08:25:38;16.60;99.90
45807;DHT22;31507;51.494;7.518;2023-07-31T08:28:05;16.60;99.90
45807;DHT22;31507;51.494;7.518;2023-07-31T08:30:31;16.50;99.90
45807;DHT22;31507;51.494;7.518;2023-07-31T08:32:56;16.30;99.90
45807;DHT22;31507;51.494;7.518;2023-07-31T08:35:23;16.30;99.90
45807;DHT22;31507;51.494;7.518;2023-07-31T08:37:49;16.20;99.90
45807;DHT22;31507;51.494;7.518;2023-07-31T08:40:15;16.20;99.90
45807;DHT22;31507;51.494;7.518;2023-07-31T08:42:47;16.30;99.90
45807;DHT22;31507;51.494;7.518;2023-07-31T09:14:26;16.60;99.90
45807;DHT22;31507;51.494;7.518;2023-07-31T09:16:56;16.60;99.90
45807;DHT22;31507;51.494;7.518;2023-07-31T09:19:33;16.50;99.90
45807;DHT22;31507;51.494;7.518;2023-07-31T09:22:00;16.40;99.90
45807;DHT22;31507;51.494;7.518;2023-07-31T09:24:30;16.40;99.90
45807;DHT22;31507;51.494;7.518;2023-07-31T09:26:57;16.40;99.90
45807;DHT22;31507;51.494;7.518;2023-07-31T09:29:24;16.40;99.90
45807;DHT22;31507;51.494;7.518;2023-07-31T09:31:52;16.40;99.90
45807;DHT22;31507;51.494;7.518;2023-07-31T09:34:17;16.40;99.90
45807;DHT22;31507;51.494;7.518;2023-07-31T09:36:45;16.40;99.90
45807;DHT22;31507;51.494;7.518;2023-07-31T09:39:12;16.30;99.90
45807;DHT22;31507;51.494;7.518;2023-07-31T09:41:41;16.40;99.90
45807;DHT22;31507;51.494;7.518;2023-07-31T09:44:07;16.40;99.90
45807;DHT22;31507;51.494;7.518;2023-07-31T09:46:35;16.40;99.90
45807;DHT22;31507;51.494;7.518;2023-07-31T09:49:13;16.50;99.90
45807;DHT22;31507;51.494;7.518;2023-07-31T09:51:40;16.40;99.90
45807;DHT22;31507;51.494;7.518;2023-07-31T09:54:14;16.40;99.90
45807;DHT22;31507;51.494;7.518;2023-07-31T09:56:46;16.40;99.90
45807;DHT22;31507;51.494;7.518;2023-07-31T09:59:18;16.40;99.90
45807;DHT22;31507;51.494;7.518;2023-07-31T10:01:45;16.50;99.90
45807;DHT22;31507;51.494;7.518;2023-07-31T10:04:12;16.60;99.90
45807;DHT22;31507;51.494;7.518;2023-07-31T10:06:39;16.60;99.90
45807;DHT22;31507;51.494;7.518;2023-07-31T10:09:07;16.70;99.90
45807;DHT22;31507;51.494;7.518;2023-07-31T10:11:56;16.80;99.90
45807;DHT22;31507;51.494;7.518;2023-07-31T10:14:26;16.70;99.90
45807;DHT22;31507;51.494;7.518;2023-07-31T10:16:52;16.70;99.90
45807;DHT22;31507;51.494;7.518;2023-07-31T10:19:18;16.70;99.90
45807;DHT22;31507;51.494;7.518;2023-07-31T10:21:45;16.70;99.90
45807;DHT22;31507;51.494;7.518;2023-07-31T10:24:12;16.70;99.90
45807;DHT22;31507;51.494;7.518;2023-07-31T10:26:38;16.70;99.90
45807;DHT22;31507;51.494;7.518;2023-07-31T10:29:05;16.80;99.90
45807;DHT22;31507;51.494;7.518;2023-07-31T10:31:32;16.90;99.90
45807;DHT22;31507;51.494;7.518;2023-07-31T10:33:59;16.90;99.90
45807;DHT22;31507;51.494;7.518;2023-07-31T10:36:26;17.00;99.90
45807;DHT22;31507;51.494;7.518;2023-07-31T10:38:52;16.90;99.90
45807;DHT22;31507;51.494;7.518;2023-07-31T10:41:18;16.80;99.90
45807;DHT22;31507;51.494;7.518;2023-07-31T10:43:46;16.70;99.90
45807;DHT22;31507;51.494;7.518;2023-07-31T10:46:12;16.80;99.90
45807;DHT22;31507;51.494;7.518;2023-07-31T10:48:40;16.80;99.90
45807;DHT22;31507;51.494;7.518;2023-07-31T10:51:12;16.80;99.90
45807;DHT22;31507;51.494;7.518;2023-07-31T10:53:39;16.80;99.90
45807;DHT22;31507;51.494;7.518;2023-07-31T10:56:10;16.70;99.90
45807;DHT22;31507;51.494;7.518;2023-07-31T10:58:44;16.70;99.90
45807;DHT22;31507;51.494;7.518;2023-07-31T11:01:10;16.70;99.90
45807;DHT22;31507;51.494;7.518;2023-07-31T11:06:08;16.70;99.90
45807;DHT22;31507;51.494;7.518;2023-07-31T11:08:44;16.70;99.90
45807;DHT22;31507;51.494;7.518;2023-07-31T11:11:12;16.70;99.90
45807;DHT22;31507;51.494;7.518;2023-07-31T11:13:52;16.70;99.90
45807;DHT22;31507;51.494;7.518;2023-07-31T11:16:20;16.70;99.90
45807;DHT22;31507;51.494;7.518;2023-07-31T11:18:47;16.70;99.90
45807;DHT22;31507;51.494;7.518;2023-07-31T11:21:22;16.70;99.90
45807;DHT22;31507;51.494;7.518;2023-07-31T11:23:49;16.70;99.90
45807;DHT22;31507;51.494;7.518;2023-07-31T11:26:15;16.80;99.90
45807;DHT22;31507;51.494;7.518;2023-07-31T11:28:41;16.70;99.90
45807;DHT22;31507;51.494;7.518;2023-07-31T11:31:11;16.60;99.90
45807;DHT22;31507;51.494;7.518;2023-07-31T11:33:37;16.70;99.90
45807;DHT22;31507;51.494;7.518;2023-07-31T11:36:03;16.70;99.90
45807;DHT22;31507;51.494;7.518;2023-07-31T11:38:33;16.70;99.90
45807;DHT22;31507;51.494;7.518;2023-07-31T11:41:01;16.70;99.90
45807;DHT22;31507;51.494;7.518;2023-07-31T11:43:28;16.70;99.90
45807;DHT22;31507;51.494;7.518;2023-07-31T11:45:58;16.80;99.90
45807;DHT22;31507;51.494;7.518;2023-07-31T11:48:29;16.80;99.90
45807;DHT22;31507;51.494;7.518;2023-07-31T11:51:00;16.90;99.90
45807;DHT22;31507;51.494;7.518;2023-07-31T11:53:37;16.90;99.90
45807;DHT22;31507;51.494;7.518;2023-07-31T11:56:04;17.00;99.90
45807;DHT22;31507;51.494;7.518;2023-07-31T11:58:32;17.00;99.90
45807;DHT22;31507;51.494;7.518;2023-07-31T12:00:59;17.10;99.90
45807;DHT22;31507;51.494;7.518;2023-07-31T12:03:26;17.10;99.90
45807;DHT22;31507;51.494;7.518;2023-07-31T12:05:53;17.20;99.90
45807;DHT22;31507;51.494;7.518;2023-07-31T12:08:21;17.20;99.90
45807;DHT22;31507;51.494;7.518;2023-07-31T12:10:47;17.40;99.90
45807;DHT22;31507;51.494;7.518;2023-07-31T12:13:26;17.50;99.90
45807;DHT22;31507;51.494;7.518;2023-07-31T12:15:56;17.70;99.90
45807;DHT22;31507;51.494;7.518;2023-07-31T12:18:24;17.70;99.90
45807;DHT22;31507;51.494;7.518;2023-07-31T12:20:55;17.80;99.90
45807;DHT22;31507;51.494;7.518;2023-07-31T12:23:23;17.90;99.90
45807;DHT22;31507;51.494;7.518;2023-07-31T12:28:44;18.20;99.90
45807;DHT22;31507;51.494;7.518;2023-07-31T12:31:12;18.40;99.90
45807;DHT22;31507;51.494;7.518;2023-07-31T12:33:38;18.60;99.90
45807;DHT22;31507;51.494;7.518;2023-07-31T12:36:12;18.60;99.90
45807;DHT22;31507;51.494;7.518;2023-07-31T12:38:38;18.60;99.90
45807;DHT22;31507;51.494;7.518;2023-07-31T12:41:04;18.60;99.90
45807;DHT22;31507;51.494;7.518;2023-07-31T12:43:32;18.50;99.90
45807;DHT22;31507;51.494;7.518;2023-07-31T12:45:58;18.40;99.90
45807;DHT22;31507;51.494;7.518;2023-07-31T12:48:24;18.30;99.90
45807;DHT22;31507;51.494;7.518;2023-07-31T12:50:50;18.20;99.90
45807;DHT22;31507;51.494;7.518;2023-07-31T12:53:16;18.20;99.90
45807;DHT22;31507;51.494;7.518;2023-07-31T12:55:41;18.10;99.90
45807;DHT22;31507;51.494;7.518;2023-07-31T12:58:07;18.00;99.90
45807;DHT22;31507;51.494;7.518;2023-07-31T13:00:33;17.80;99.90
45807;DHT22;31507;51.494;7.518;2023-07-31T13:03:00;17.70;99.90
45807;DHT22;31507;51.494;7.518;2023-07-31T13:05:26;17.60;99.90
45807;DHT22;31507;51.494;7.518;2023-07-31T13:07:52;17.40;99.90
45807;DHT22;31507;51.494;7.518;2023-07-31T13:10:22;17.40;99.90
45807;DHT22;31507;51.494;7.518;2023-07-31T13:12:48;17.30;99.90
45807;DHT22;31507;51.494;7.518;2023-07-31T13:15:14;17.30;99.90
45807;DHT22;31507;51.494;7.518;2023-07-31T13:17:39;17.30;99.90
45807;DHT22;31507;51.494;7.518;2023-07-31T13:20:05;17.40;99.90
45807;DHT22;31507;51.494;7.518;2023-07-31T13:22:31;17.50;99.90
45807;DHT22;31507;51.494;7.518;2023-07-31T13:24:59;17.60;99.90
45807;DHT22;31507;51.494;7.518;2023-07-31T13:27:25;17.70;99.90
45807;DHT22;31507;51.494;7.518;2023-07-31T13:29:53;17.80;99.90
45807;DHT22;31507;51.494;7.518;2023-07-31T13:32:19;17.90;99.90
45807;DHT22;31507;51.494;7.518;2023-07-31T13:34:46;18.00;99.90
45807;DHT22;31507;51.494;7.518;2023-07-31T13:37:12;18.00;99.90
45807;DHT22;31507;51.494;7.518;2023-07-31T13:39:38;18.10;99.90
45807;DHT22;31507;51.494;7.518;2023-07-31T13:42:04;18.10;99.90
45807;DHT22;31507;51.494;7.518;2023-07-31T13:44:32;18.00;99.90
45807;DHT22;31507;51.494;7.518;2023-07-31T13:46:58;17.70;99.90
45807;DHT22;31507;51.494;7.518;2023-07-31T13:49:24;17.60;99.90
45807;DHT22;31507;51.494;7.518;2023-07-31T13:51:50;17.50;99.90
45807;DHT22;31507;51.494;7.518;2023-07-31T13:54:16;17.50;99.90
45807;DHT22;31507;51.494;7.518;2023-07-31T13:56:43;17.60;99.90
45807;DHT22;31507;51.494;7.518;2023-07-31T13:59:09;17.60;99.90
45807;DHT22;31507;51.494;7.518;2023-07-31T14:01:35;17.70;99.90
45807;DHT22;31507;51.494;7.518;2023-07-31T14:04:01;17.80;99.90
45807;DHT22;31507;51.494;7.518;2023-07-31T14:06:26;17.90;99.90
45807;DHT22;31507;51.494;7.518;2023-07-31T14:08:52;18.00;99.90
45807;DHT22;31507;51.494;7.518;2023-07-31T14:11:17;17.90;99.90
45807;DHT22;31507;51.494;7.518;2023-07-31T14:13:43;17.80;99.90
45807;DHT22;31507;51.494;7.518;2023-07-31T14:16:09;17.80;99.90
45807;DHT22;31507;51.494;7.518;2023-07-31T14:18:34;17.90;99.90
45807;DHT22;31507;51.494;7.518;2023-07-31T14:21:00;17.90;99.90
45807;DHT22;31507;51.494;7.518;2023-07-31T14:23:26;18.00;99.90
45807;DHT22;31507;51.494;7.518;2023-07-31T14:25:51;18.10;99.90
45807;DHT22;31507;51.494;7.518;2023-07-31T14:28:17;18.10;99.90
45807;DHT22;31507;51.494;7.518;2023-07-31T14:30:42;18.20;99.90
45807;DHT22;31507;51.494;7.518;2023-07-31T14:33:08;18.50;99.90
45807;DHT22;31507;51.494;7.518;2023-07-31T14:35:34;18.80;99.90
45807;DHT22;31507;51.494;7.518;2023-07-31T14:38:00;19.10;99.90
45807;DHT22;31507;51.494;7.518;2023-07-31T14:40:26;19.30;99.90
45807;DHT22;31507;51.494;7.518;2023-07-31T14:42:51;19.40;99.90
45807;DHT22;31507;51.494;7.518;2023-07-31T14:45:17;19.50;99.90
45807;DHT22;31507;51.494;7.518;2023-07-31T14:47:43;19.60;99.90
45807;DHT22;31507;51.494;7.518;2023-07-31T14:50:09;19.70;99.90
45807;DHT22;31507;51.494;7.518;2023-07-31T14:52:35;19.90;99.90
45807;DHT22;31507;51.494;7.518;2023-07-31T14:55:00;19.90;99.90
45807;DHT22;31507;51.494;7.518;2023-07-31T14:57:26;19.90;99.90
45807;DHT22;31507;51.494;7.518;2023-07-31T14:59:51;19.90;99.90
45807;DHT22;31507;51.494;7.518;2023-07-31T15:02:19;19.70;99.90
45807;DHT22;31507;51.494;7.518;2023-07-31T15:04:45;19.60;99.90
45807;DHT22;31507;51.494;7.518;2023-07-31T15:07:11;19.40;99.90
45807;DHT22;31507;51.494;7.518;2023-07-31T15:09:39;19.30;99.90
45807;DHT22;31507;51.494;7.518;2023-07-31T15:12:08;19.20;99.90
45807;DHT22;31507;51.494;7.518;2023-07-31T15:14:33;19.10;99.90
45807;DHT22;31507;51.494;7.518;2023-07-31T15:17:00;19.00;99.90
45807;DHT22;31507;51.494;7.518;2023-07-31T15:19:25;19.00;99.90
45807;DHT22;31507;51.494;7.518;2023-07-31T15:21:51;19.00;99.90
45807;DHT22;31507;51.494;7.518;2023-07-31T15:24:17;19.10;99.90
45807;DHT22;31507;51.494;7.518;2023-07-31T15:26:42;19.20;99.90
45807;DHT22;31507;51.494;7.518;2023-07-31T15:29:08;19.20;99.90
45807;DHT22;31507;51.494;7.518;2023-07-31T15:31:35;19.30;99.90
45807;DHT22;31507;51.494;7.518;2023-07-31T15:34:01;19.30;99.90
45807;DHT22;31507;51.494;7.518;2023-07-31T15:36:26;19.50;99.90
45807;DHT22;31507;51.494;7.518;2023-07-31T15:38:52;19.60;99.90
45807;DHT22;31507;51.494;7.518;2023-07-31T15:41:18;19.60;99.90
45807;DHT22;31507;51.494;7.518;2023-07-31T15:43:44;19.60;99.90
45807;DHT22;31507;51.494;7.518;2023-07-31T15:46:10;19.50;99.90
45807;DHT22;31507;51.494;7.518;2023-07-31T15:48:36;19.50;99.90
45807;DHT22;31507;51.494;7.518;2023-07-31T15:51:02;19.50;99.90
45807;DHT22;31507;51.494;7.518;2023-07-31T15:53:29;19.50;99.90
45807;DHT22;31507;51.494;7.518;2023-07-31T15:55:55;19.40;99.90
45807;DHT22;31507;51.494;7.518;2023-07-31T15:58:20;19.40;99.90
45807;DHT22;31507;51.494;7.518;2023-07-31T16:00:46;19.30;99.90
45807;DHT22;31507;51.494;7.518;2023-07-31T16:03:12;19.20;99.90
45807;DHT22;31507;51.494;7.518;2023-07-31T16:05:37;19.10;99.90
45807;DHT22;31507;51.494;7.518;2023-07-31T16:08:03;19.10;99.90
45807;DHT22;31507;51.494;7.518;2023-07-31T16:10:29;19.00;99.90
45807;DHT22;31507;51.494;7.518;2023-07-31T16:12:55;19.00;99.90
45807;DHT22;31507;51.494;7.518;2023-07-31T16:15:20;19.00;99.90